createdAt,value
2022-09-14T00:01:34.587Z,17.19
2022-09-14T00:04:05.747Z,17.12
2022-09-14T00:06:34.041Z,17.35
2022-09-14T00:09:06.813Z,17.22
2022-09-14T00:11:36.729Z,17.22
2022-09-14T00:14:06.228Z,17.13
2022-09-14T00:16:36.388Z,17.11
2022-09-14T00:19:06.808Z,17.12
2022-09-14T00:21:36.026Z,17.05
2022-09-14T00:24:07.267Z,16.96
2022-09-14T00:26:36.339Z,16.88
2022-09-14T00:29:06.090Z,16.88
2022-09-14T00:31:35.814Z,16.86
2022-09-14T00:34:04.734Z,16.86
2022-09-14T00:36:35.031Z,16.92
2022-09-14T00:39:03.233Z,16.95
2022-09-14T00:41:34.769Z,16.87
2022-09-14T00:44:05.318Z,16.80
2022-09-14T00:46:37.847Z,16.75
2022-09-14T00:49:08.535Z,16.74
2022-09-14T00:51:39.108Z,16.72
2022-09-14T00:54:08.012Z,16.73
2022-09-14T00:56:37.737Z,16.72
2022-09-14T00:59:08.756Z,16.94
2022-09-14T01:01:37.152Z,16.83
2022-09-14T01:04:05.276Z,17.00
2022-09-14T01:06:38.310Z,17.37
2022-09-14T01:09:19.373Z,17.47
2022-09-14T01:11:59.229Z,17.22
2022-09-14T01:14:35.246Z,17.32
2022-09-14T01:17:07.802Z,17.14
2022-09-14T01:19:59.661Z,17.06
2022-09-14T01:22:35.261Z,17.09
2022-09-14T01:25:13.837Z,16.96
2022-09-14T01:27:44.260Z,16.93
2022-09-14T01:30:14.690Z,17.02
2022-09-14T01:32:48.051Z,16.91
2022-09-14T01:35:20.314Z,17.08
2022-09-14T01:37:51.534Z,17.01
2022-09-14T01:40:22.359Z,16.98
2022-09-14T01:42:57.396Z,17.03
2022-09-14T01:45:28.689Z,17.17
2022-09-14T01:48:00.627Z,17.31
2022-09-14T01:50:34.188Z,17.03
2022-09-14T01:53:07.388Z,16.98
2022-09-14T01:55:40.295Z,17.03
2022-09-14T01:58:13.610Z,17.29
2022-09-14T02:00:45.944Z,17.12
2022-09-14T02:03:17.236Z,17.24
2022-09-14T02:05:50.309Z,17.41
2022-09-14T02:08:18.792Z,17.01
2022-09-14T02:10:47.083Z,16.93
2022-09-14T02:13:16.797Z,16.94
2022-09-14T02:15:44.996Z,17.21
2022-09-14T02:18:13.477Z,17.28
2022-09-14T02:20:44.313Z,17.14
2022-09-14T02:23:12.537Z,17.00
2022-09-14T02:25:41.402Z,16.90
2022-09-14T02:28:09.745Z,16.87
2022-09-14T02:30:44.555Z,16.86
2022-09-14T02:33:18.363Z,16.87
2022-09-14T02:35:48.910Z,16.88
2022-09-14T02:38:21.547Z,16.93
2022-09-14T02:40:54.558Z,16.95
2022-09-14T02:43:29.559Z,16.87
2022-09-14T02:46:05.107Z,16.82
2022-09-14T02:48:38.811Z,16.79
2022-09-14T02:51:18.544Z,16.76
2022-09-14T02:53:55.175Z,16.75
2022-09-14T02:56:23.591Z,16.78
2022-09-14T02:58:51.891Z,16.79
2022-09-14T03:01:22.916Z,16.84
2022-09-14T03:03:51.154Z,16.86
2022-09-14T03:06:19.443Z,16.80
2022-09-14T03:08:48.027Z,16.77
2022-09-14T03:11:16.388Z,16.74
2022-09-14T03:13:44.536Z,16.71
2022-09-14T03:16:15.065Z,16.73
2022-09-14T03:18:45.017Z,16.72
2022-09-14T03:21:15.369Z,16.75
2022-09-14T03:23:45.448Z,16.73
2022-09-14T03:26:14.965Z,16.72
2022-09-14T03:28:43.532Z,16.70
2022-09-14T03:31:13.249Z,16.71
2022-09-14T03:33:41.828Z,16.66
2022-09-14T03:36:17.239Z,16.64
2022-09-14T03:38:45.872Z,16.63
2022-09-14T03:41:14.808Z,16.70
2022-09-14T03:43:44.174Z,16.66
2022-09-14T03:46:14.172Z,16.68
2022-09-14T03:48:42.880Z,16.68
2022-09-14T03:51:14.468Z,16.67
2022-09-14T03:53:43.400Z,16.71
2022-09-14T03:56:12.931Z,16.69
2022-09-14T03:58:41.759Z,16.79
2022-09-14T04:01:11.829Z,16.82
2022-09-14T04:03:40.127Z,16.81
2022-09-14T04:06:09.361Z,16.87
2022-09-14T04:08:40.935Z,16.90
2022-09-14T04:11:09.864Z,16.85
2022-09-14T04:13:38.588Z,16.84
2022-09-14T04:16:06.863Z,16.83
2022-09-14T04:18:35.377Z,16.87
2022-09-14T04:21:08.505Z,16.82
2022-09-14T04:24:02.992Z,16.78
2022-09-14T04:26:28.519Z,16.61
2022-09-14T04:28:57.156Z,16.54
2022-09-14T04:31:26.381Z,16.53
2022-09-14T04:33:56.457Z,16.53
2022-09-14T04:36:28.474Z,16.50
2022-09-14T04:39:00.254Z,16.44
2022-09-14T04:41:29.261Z,16.38
2022-09-14T04:43:57.783Z,16.32
2022-09-14T04:46:28.714Z,16.30
2022-09-14T04:48:57.033Z,16.43
2022-09-14T04:51:28.652Z,16.46
2022-09-14T04:54:00.303Z,16.57
2022-09-14T04:56:29.703Z,16.50
2022-09-14T04:59:00.953Z,16.51
2022-09-14T05:01:30.689Z,16.53
2022-09-14T05:03:59.123Z,16.68
2022-09-14T05:06:28.941Z,16.74
2022-09-14T05:09:00.167Z,16.77
2022-09-14T05:11:30.796Z,16.83
2022-09-14T05:14:00.237Z,16.91
2022-09-14T05:16:30.239Z,16.96
2022-09-14T05:19:02.082Z,17.01
2022-09-14T05:21:31.658Z,16.99
2022-09-14T05:24:03.059Z,17.30
2022-09-14T05:26:32.226Z,17.09
2022-09-14T05:29:01.967Z,17.02
2022-09-14T05:31:32.108Z,17.18
2022-09-14T05:34:00.778Z,17.37
2022-09-14T05:36:29.225Z,17.41
2022-09-14T05:38:59.216Z,17.55
2022-09-14T05:41:28.750Z,17.76
2022-09-14T05:43:56.937Z,17.72
2022-09-14T05:46:25.261Z,17.76
2022-09-14T05:48:53.487Z,17.89
2022-09-14T05:51:22.824Z,18.06
2022-09-14T05:53:51.605Z,18.07
2022-09-14T05:56:20.599Z,18.29
2022-09-14T05:58:50.319Z,18.22
2022-09-14T06:01:20.673Z,18.28
2022-09-14T06:03:49.813Z,18.85
2022-09-14T06:06:19.219Z,18.86
2022-09-14T06:08:50.238Z,18.64
2022-09-14T06:11:20.577Z,18.75
2022-09-14T06:13:50.812Z,18.76
2022-09-14T06:16:21.678Z,18.62
2022-09-14T06:18:50.449Z,18.67
2022-09-14T06:21:20.762Z,18.87
2022-09-14T06:23:50.540Z,19.04
2022-09-14T06:26:19.087Z,19.00
2022-09-14T06:28:47.250Z,19.19
2022-09-14T06:31:17.898Z,19.31
2022-09-14T06:33:46.506Z,19.46
2022-09-14T06:36:16.076Z,19.50
2022-09-14T06:38:44.536Z,19.53
2022-09-14T06:41:13.769Z,19.69
2022-09-14T06:43:43.324Z,19.81
2022-09-14T06:46:13.791Z,19.52
2022-09-14T06:48:44.942Z,19.80
2022-09-14T06:51:15.554Z,19.81
2022-09-14T06:53:44.129Z,19.84
2022-09-14T06:56:12.894Z,19.66
2022-09-14T06:58:41.227Z,19.74
2022-09-14T07:01:12.293Z,19.93
2022-09-14T07:03:40.813Z,20.01
2022-09-14T07:06:12.190Z,20.19
2022-09-14T07:08:40.701Z,20.14
2022-09-14T07:11:10.354Z,20.30
2022-09-14T07:13:38.565Z,20.60
2022-09-14T07:16:08.152Z,20.70
2022-09-14T07:18:36.673Z,20.68
2022-09-14T07:21:05.936Z,21.00
2022-09-14T07:23:37.825Z,21.06
2022-09-14T07:26:08.565Z,21.20
2022-09-14T07:28:38.016Z,21.28
2022-09-14T07:31:14.664Z,21.43
2022-09-14T07:33:42.913Z,21.34
2022-09-14T07:36:12.897Z,21.37
2022-09-14T07:38:57.781Z,21.43
2022-09-14T07:41:28.713Z,21.15
2022-09-14T07:44:00.230Z,21.60
2022-09-14T07:46:29.351Z,21.88
2022-09-14T07:48:58.471Z,22.21
2022-09-14T07:51:28.429Z,22.41
2022-09-14T07:53:58.923Z,22.45
2022-09-14T07:56:27.222Z,22.75
2022-09-14T07:59:11.488Z,22.60
2022-09-14T08:01:40.207Z,22.87
2022-09-14T08:04:09.399Z,22.05
2022-09-14T08:06:37.826Z,22.29
2022-09-14T08:09:09.177Z,22.68
2022-09-14T08:11:38.210Z,22.92
2022-09-14T08:14:09.807Z,22.96
2022-09-14T08:16:38.929Z,23.01
2022-09-14T08:19:10.855Z,23.11
2022-09-14T08:21:44.174Z,23.15
2022-09-14T08:24:17.884Z,23.42
2022-09-14T08:26:46.279Z,23.79
2022-09-14T08:29:14.645Z,24.16
2022-09-14T08:31:44.411Z,23.97
2022-09-14T08:34:12.927Z,24.05
2022-09-14T08:36:42.761Z,24.12
2022-09-14T08:39:12.453Z,24.13
2022-09-14T08:41:47.702Z,24.36
2022-09-14T08:44:18.683Z,24.43
2022-09-14T08:46:49.864Z,24.50
2022-09-14T08:49:22.050Z,24.62
2022-09-14T08:51:51.938Z,24.51
2022-09-14T08:54:20.131Z,24.29
2022-09-14T08:56:55.502Z,24.46
2022-09-14T08:59:39.992Z,24.11
2022-09-14T09:02:27.787Z,23.90
2022-09-14T09:04:58.528Z,24.38
2022-09-14T09:07:33.539Z,24.41
2022-09-14T09:10:02.330Z,24.99
2022-09-14T09:12:37.451Z,25.17
2022-09-14T09:15:15.074Z,25.38
2022-09-14T09:17:46.601Z,25.58
2022-09-14T09:20:18.235Z,25.39
2022-09-14T09:22:49.059Z,25.31
2022-09-14T09:25:23.603Z,24.98
2022-09-14T09:27:55.663Z,25.88
2022-09-14T09:30:29.896Z,25.99
2022-09-14T09:32:58.754Z,26.10
2022-09-14T09:35:46.511Z,26.39
2022-09-14T09:38:25.068Z,26.89
2022-09-14T09:40:56.404Z,26.77
2022-09-14T09:43:47.858Z,26.44
2022-09-14T09:46:14.474Z,26.51
2022-09-14T09:48:44.467Z,26.70
2022-09-14T09:51:14.256Z,27.06
2022-09-14T09:53:49.635Z,27.02
2022-09-14T09:56:20.190Z,26.64
2022-09-14T09:58:51.923Z,27.25
2022-09-14T10:01:23.310Z,27.20
2022-09-14T10:04:17.027Z,26.94
2022-09-14T10:06:47.377Z,27.12
2022-09-14T10:09:18.071Z,27.35
2022-09-14T10:11:47.233Z,27.43
2022-09-14T10:14:28.498Z,27.56
2022-09-14T10:17:06.261Z,28.07
2022-09-14T10:19:34.592Z,28.21
2022-09-14T10:22:06.561Z,28.57
2022-09-14T10:24:36.045Z,29.02
2022-09-14T10:27:06.572Z,29.22
2022-09-14T10:29:41.193Z,29.68
2022-09-14T10:32:18.935Z,29.02
2022-09-14T10:34:47.364Z,29.59
2022-09-14T10:37:25.613Z,29.54
2022-09-14T10:40:15.793Z,29.70
2022-09-14T10:42:52.051Z,29.64
2022-09-14T10:45:29.689Z,29.82
2022-09-14T10:48:22.301Z,29.68
2022-09-14T10:50:59.136Z,29.71
2022-09-14T10:53:41.385Z,29.88
2022-09-14T10:56:15.395Z,29.63
2022-09-14T10:59:15.566Z,30.04
2022-09-14T11:01:56.183Z,30.24
2022-09-14T11:04:38.512Z,30.54
2022-09-14T11:07:12.398Z,30.47
2022-09-14T11:09:44.970Z,31.19
2022-09-14T11:12:24.116Z,31.20
2022-09-14T11:15:04.591Z,31.32
2022-09-14T11:18:00.853Z,31.53
2022-09-14T11:20:39.383Z,30.89
2022-09-14T11:23:32.267Z,30.81
2022-09-14T11:26:04.052Z,31.08
2022-09-14T11:28:34.143Z,31.53
2022-09-14T11:31:05.292Z,30.78
2022-09-14T11:33:41.078Z,31.64
2022-09-14T11:36:16.761Z,31.89
2022-09-14T11:38:48.043Z,32.21
2022-09-14T11:41:23.631Z,31.80
2022-09-14T11:43:56.060Z,32.35
2022-09-14T11:46:27.863Z,32.64
2022-09-14T11:49:02.496Z,32.64
2022-09-14T11:51:34.077Z,32.66
2022-09-14T11:54:02.276Z,32.34
2022-09-14T11:56:32.205Z,32.68
2022-09-14T11:59:01.506Z,32.82
2022-09-14T12:01:33.003Z,32.51
2022-09-14T12:04:14.320Z,33.05
2022-09-14T12:06:50.704Z,32.99
2022-09-14T12:09:42.069Z,31.20
2022-09-14T12:12:38.848Z,30.76
2022-09-14T12:15:20.174Z,31.27
2022-09-14T12:17:49.084Z,32.05
2022-09-14T12:20:44.152Z,32.51
2022-09-14T12:23:31.222Z,32.97
2022-09-14T12:26:06.652Z,32.56
2022-09-14T12:28:48.284Z,32.89
2022-09-14T12:31:39.815Z,33.61
2022-09-14T12:34:21.248Z,33.62
2022-09-14T12:37:28.313Z,33.50
2022-09-14T12:40:36.501Z,33.14
2022-09-14T12:43:49.600Z,32.51
2022-09-14T12:46:39.797Z,32.74
2022-09-14T12:49:30.518Z,31.15
2022-09-14T12:52:03.589Z,31.36
2022-09-14T12:54:44.529Z,31.41
2022-09-14T12:57:24.545Z,31.73
2022-09-14T12:59:56.736Z,31.58
2022-09-14T13:03:09.848Z,31.07
2022-09-14T13:05:38.361Z,32.50
2022-09-14T13:08:10.491Z,31.86
2022-09-14T13:10:46.744Z,31.74
2022-09-14T13:13:18.830Z,31.71
2022-09-14T13:15:54.153Z,31.75
2022-09-14T13:18:31.106Z,31.90
2022-09-14T13:21:01.149Z,32.05
2022-09-14T13:23:38.217Z,32.30
2022-09-14T13:26:17.779Z,32.89
2022-09-14T13:28:48.014Z,33.35
2022-09-14T13:31:28.702Z,33.95
2022-09-14T13:33:57.367Z,33.39
2022-09-14T13:36:27.980Z,34.30
2022-09-14T13:38:57.214Z,34.62
2022-09-14T13:41:26.746Z,33.90
2022-09-14T13:43:56.790Z,33.95
2022-09-14T13:46:27.129Z,34.31
2022-09-14T13:48:55.901Z,34.74
2022-09-14T13:51:26.040Z,35.02
2022-09-14T13:53:55.850Z,35.07
2022-09-14T13:56:31.153Z,35.23
2022-09-14T13:59:22.303Z,34.61
2022-09-14T14:01:56.697Z,33.64
2022-09-14T14:04:29.829Z,33.85
2022-09-14T14:07:07.173Z,34.16
2022-09-14T14:09:47.723Z,34.42
2022-09-14T14:12:25.767Z,34.36
2022-09-14T14:14:55.596Z,34.83
2022-09-14T14:17:36.775Z,35.08
2022-09-14T14:20:33.726Z,35.03
2022-09-14T14:23:15.430Z,35.18
2022-09-14T14:25:47.444Z,34.69
2022-09-14T14:28:21.007Z,35.00
2022-09-14T14:30:49.610Z,35.06
2022-09-14T14:33:19.630Z,34.37
2022-09-14T14:35:48.495Z,33.32
2022-09-14T14:38:17.268Z,33.50
2022-09-14T14:40:46.194Z,32.86
2022-09-14T14:43:19.870Z,32.98
2022-09-14T14:45:48.929Z,33.03
2022-09-14T14:48:18.376Z,33.72
2022-09-14T14:50:47.446Z,32.76
2022-09-14T14:53:15.638Z,32.34
2022-09-14T14:55:44.007Z,32.36
2022-09-14T14:58:16.638Z,32.23
2022-09-14T15:00:47.580Z,32.02
2022-09-14T15:03:16.515Z,31.56
2022-09-14T15:05:46.006Z,31.06
2022-09-14T15:08:15.694Z,31.02
2022-09-14T15:10:44.248Z,30.69
2022-09-14T15:13:13.142Z,30.82
2022-09-14T15:15:43.006Z,30.77
2022-09-14T15:18:12.586Z,30.25
2022-09-14T15:20:40.864Z,30.39
2022-09-14T15:23:10.057Z,30.37
2022-09-14T15:25:38.207Z,30.20
2022-09-14T15:28:06.343Z,29.88
2022-09-14T15:30:34.503Z,29.54
2022-09-14T15:33:03.167Z,29.53
2022-09-14T15:35:32.849Z,29.43
2022-09-14T15:38:01.110Z,28.81
2022-09-14T15:40:29.412Z,29.01
2022-09-14T15:42:57.710Z,28.80
2022-09-14T15:45:26.042Z,28.62
2022-09-14T15:47:54.181Z,28.87
2022-09-14T15:50:22.814Z,28.80
2022-09-14T15:52:52.321Z,28.66
2022-09-14T15:55:20.720Z,28.90
2022-09-14T15:57:48.912Z,28.77
2022-09-14T16:00:17.253Z,28.70
2022-09-14T16:02:45.724Z,29.02
2022-09-14T16:05:16.143Z,28.69
2022-09-14T16:07:44.309Z,28.59
2022-09-14T16:10:13.848Z,28.39
2022-09-14T16:12:41.969Z,28.60
2022-09-14T16:15:11.019Z,28.50
2022-09-14T16:17:39.148Z,28.11
2022-09-14T16:20:10.143Z,27.80
2022-09-14T16:22:38.287Z,27.58
2022-09-14T16:25:07.216Z,27.42
2022-09-14T16:27:36.861Z,27.04
2022-09-14T16:30:05.869Z,26.96
2022-09-14T16:32:33.990Z,27.06
2022-09-14T16:35:07.257Z,26.93
2022-09-14T16:37:36.255Z,26.18
2022-09-14T16:40:05.448Z,26.29
2022-09-14T16:42:33.836Z,26.49
2022-09-14T16:45:03.395Z,26.34
2022-09-14T16:47:32.353Z,26.47
2022-09-14T16:50:01.183Z,26.30
2022-09-14T16:52:29.847Z,26.11
2022-09-14T16:54:58.114Z,25.99
2022-09-14T16:57:27.162Z,25.96
2022-09-14T16:59:55.425Z,26.04
2022-09-14T17:02:24.997Z,25.98
2022-09-14T17:04:53.874Z,25.78
2022-09-14T17:07:23.817Z,25.87
2022-09-14T17:09:52.088Z,25.85
2022-09-14T17:12:20.246Z,25.67
2022-09-14T17:14:48.441Z,25.25
2022-09-14T17:17:16.637Z,25.36
2022-09-14T17:19:46.288Z,25.32
2022-09-14T17:22:14.558Z,25.07
2022-09-14T17:24:42.738Z,25.10
2022-09-14T17:27:11.053Z,25.00
2022-09-14T17:29:40.839Z,24.95
2022-09-14T17:32:14.029Z,24.93
2022-09-14T17:34:42.905Z,24.81
2022-09-14T17:37:12.613Z,24.87
2022-09-14T17:39:40.844Z,24.85
2022-09-14T17:42:09.016Z,24.94
2022-09-14T17:44:37.310Z,24.92
2022-09-14T17:47:05.783Z,24.73
2022-09-14T17:49:34.023Z,24.61
2022-09-14T17:52:03.135Z,24.72
2022-09-14T17:54:33.230Z,24.36
2022-09-14T17:57:01.419Z,24.42
2022-09-14T17:59:29.749Z,24.35
2022-09-14T18:01:58.019Z,24.36
2022-09-14T18:04:26.226Z,24.31
2022-09-14T18:06:54.611Z,24.35
2022-09-14T18:09:25.420Z,24.28
2022-09-14T18:11:58.189Z,24.23
2022-09-14T18:14:26.808Z,23.88
2022-09-14T18:16:55.364Z,23.80
2022-09-14T18:19:23.909Z,23.55
2022-09-14T18:21:52.959Z,23.62
2022-09-14T18:24:22.122Z,23.69
2022-09-14T18:26:50.812Z,23.71
2022-09-14T18:29:23.477Z,23.77
2022-09-14T18:31:52.432Z,23.54
2022-09-14T18:34:21.408Z,23.60
2022-09-14T18:36:51.891Z,23.22
2022-09-14T18:39:21.908Z,23.64
2022-09-14T18:41:52.497Z,23.78
2022-09-14T18:44:23.138Z,23.80
2022-09-14T18:46:53.179Z,23.67
2022-09-14T18:49:22.542Z,23.54
2022-09-14T18:51:52.319Z,23.52
2022-09-14T18:54:26.726Z,23.41
2022-09-14T18:56:56.260Z,22.85
2022-09-14T18:59:26.819Z,22.75
2022-09-14T19:01:55.440Z,22.99
2022-09-14T19:04:24.144Z,23.17
2022-09-14T19:06:52.877Z,23.41
2022-09-14T19:09:21.560Z,23.27
2022-09-14T19:11:50.305Z,23.22
2022-09-14T19:14:21.054Z,23.22
2022-09-14T19:16:51.826Z,23.22
2022-09-14T19:19:20.988Z,23.20
2022-09-14T19:21:49.595Z,23.14
2022-09-14T19:24:19.026Z,23.25
2022-09-14T19:26:49.141Z,23.28
2022-09-14T19:29:20.819Z,23.36
2022-09-14T19:31:52.611Z,23.47
2022-09-14T19:34:22.332Z,23.34
2022-09-14T19:36:51.279Z,23.33
2022-09-14T19:39:20.128Z,23.41
2022-09-14T19:41:48.946Z,23.34
2022-09-14T19:44:18.203Z,23.45
2022-09-14T19:46:47.267Z,23.56
2022-09-14T19:49:19.529Z,23.64
2022-09-14T19:51:49.286Z,23.68
2022-09-14T19:54:20.011Z,23.69
2022-09-14T19:56:49.226Z,23.66
2022-09-14T19:59:17.878Z,23.13
2022-09-14T20:01:46.812Z,23.12
2022-09-14T20:04:18.434Z,23.13
2022-09-14T20:06:48.588Z,23.23
2022-09-14T20:09:18.603Z,23.33
2022-09-14T20:11:48.700Z,23.23
2022-09-14T20:14:21.076Z,23.51
2022-09-14T20:16:52.597Z,23.21
2022-09-14T20:19:24.169Z,23.35
2022-09-14T20:21:53.830Z,23.23
2022-09-14T20:24:25.826Z,22.97
2022-09-14T20:26:56.456Z,22.81
2022-09-14T20:29:30.897Z,22.75
2022-09-14T20:31:59.834Z,22.74
2022-09-14T20:34:30.473Z,22.67
2022-09-14T20:37:00.284Z,22.52
2022-09-14T20:39:29.682Z,22.54
2022-09-14T20:42:01.394Z,22.47
2022-09-14T20:44:30.460Z,22.44
2022-09-14T20:47:00.032Z,22.38
2022-09-14T20:49:31.107Z,22.57
2022-09-14T20:52:02.638Z,22.25
2022-09-14T20:54:31.580Z,22.22
2022-09-14T20:57:04.590Z,22.00
2022-09-14T20:59:33.541Z,22.43
2022-09-14T21:02:05.360Z,22.19
2022-09-14T21:04:36.327Z,22.12
2022-09-14T21:07:04.808Z,21.67
2022-09-14T21:09:33.234Z,22.06
2022-09-14T21:12:03.885Z,22.11
2022-09-14T21:14:32.282Z,22.02
2022-09-14T21:17:03.220Z,21.98
2022-09-14T21:19:31.610Z,22.03
2022-09-14T21:22:01.498Z,22.07
2022-09-14T21:24:31.403Z,22.24
2022-09-14T21:26:59.997Z,22.11
2022-09-14T21:29:28.871Z,22.12
2022-09-14T21:31:57.334Z,22.01
2022-09-14T21:34:26.444Z,21.79
2022-09-14T21:36:54.974Z,21.88
2022-09-14T21:39:27.043Z,21.73
2022-09-14T21:41:59.188Z,21.70
2022-09-14T21:44:31.551Z,21.67
2022-09-14T21:47:00.173Z,21.62
2022-09-14T21:49:29.069Z,21.57
2022-09-14T21:51:57.621Z,21.56
2022-09-14T21:54:28.046Z,21.57
2022-09-14T21:56:56.523Z,21.68
2022-09-14T21:59:25.174Z,21.99
2022-09-14T22:01:54.838Z,21.90
2022-09-14T22:04:27.709Z,21.86
2022-09-14T22:07:04.260Z,21.87
2022-09-14T22:09:38.109Z,21.82
2022-09-14T22:12:06.982Z,21.75
2022-09-14T22:14:38.462Z,21.75
2022-09-14T22:17:06.778Z,22.00
2022-09-14T22:19:35.263Z,22.00
2022-09-14T22:22:03.980Z,21.65
2022-09-14T22:24:38.789Z,21.32
2022-09-14T22:27:08.747Z,21.56
2022-09-14T22:29:37.520Z,21.74
2022-09-14T22:32:07.303Z,21.69
2022-09-14T22:34:35.901Z,21.60
2022-09-14T22:37:04.278Z,21.48
2022-09-14T22:39:34.533Z,21.45
2022-09-14T22:42:02.954Z,21.29
2022-09-14T22:44:31.227Z,21.37
2022-09-14T22:46:59.640Z,21.41
2022-09-14T22:49:27.982Z,21.45
2022-09-14T22:51:56.383Z,21.48
2022-09-14T22:54:24.875Z,21.54
2022-09-14T22:56:54.648Z,21.53
2022-09-14T22:59:22.981Z,21.86
2022-09-14T23:01:51.342Z,22.16
2022-09-14T23:04:19.721Z,22.04
2022-09-14T23:06:49.281Z,22.37
2022-09-14T23:09:19.286Z,22.44
2022-09-14T23:11:47.767Z,21.72
2022-09-14T23:14:17.817Z,19.99
2022-09-14T23:16:46.536Z,19.06
2022-09-14T23:19:16.289Z,18.88
2022-09-14T23:21:44.621Z,18.98
2022-09-14T23:24:12.860Z,18.83
2022-09-14T23:26:41.139Z,18.83
2022-09-14T23:29:13.497Z,18.77
2022-09-14T23:31:43.122Z,18.81
2022-09-14T23:34:11.394Z,18.89
2022-09-14T23:36:39.650Z,18.84
2022-09-14T23:39:07.907Z,18.96
2022-09-14T23:41:36.074Z,19.08
2022-09-14T23:44:04.403Z,19.13
2022-09-14T23:46:32.543Z,19.21
2022-09-14T23:49:02.179Z,19.56
2022-09-14T23:51:30.387Z,19.51
2022-09-14T23:53:58.721Z,19.48
2022-09-14T23:56:26.944Z,19.36
2022-09-14T23:58:55.170Z,19.46
